createdAt,value
2023-03-31T00:00:30.412Z,95703.09
2023-03-31T00:02:58.792Z,95699.91
2023-03-31T00:05:26.336Z,95701.63
2023-03-31T00:07:55.147Z,95700.78
2023-03-31T00:10:23.966Z,95710.22
2023-03-31T00:12:51.439Z,95705.06
2023-03-31T00:15:18.894Z,95701.13
2023-03-31T00:17:47.228Z,95703.31
2023-03-31T00:20:14.858Z,95700.47
2023-03-31T00:22:46.774Z,95685.66
2023-03-31T00:25:14.746Z,95681.88
2023-03-31T00:27:45.121Z,95686.34
2023-03-31T00:30:14.542Z,95677.06
2023-03-31T00:32:42.143Z,95691.81
2023-03-31T00:35:10.406Z,95690.38
2023-03-31T00:37:38.635Z,95681.78
2023-03-31T00:40:09.770Z,95679.94
2023-03-31T00:42:41.065Z,95673.16
2023-03-31T00:45:32.136Z,95673.84
2023-03-31T00:48:10.093Z,95672.34
2023-03-31T00:50:45.980Z,95674.81
2023-03-31T00:53:18.713Z,95668.03
2023-03-31T00:55:49.822Z,95666.72
2023-03-31T00:58:21.040Z,95671.34
2023-03-31T01:00:52.842Z,95663.56
2023-03-31T01:03:22.523Z,95650.84
2023-03-31T01:05:53.287Z,95655.97
2023-03-31T01:08:25.755Z,95651.81
2023-03-31T01:10:55.802Z,95636.41
2023-03-31T01:13:25.928Z,95641.31
2023-03-31T01:15:55.146Z,95640.72
2023-03-31T01:18:23.097Z,95646.69
2023-03-31T01:21:18.961Z,95637.13
2023-03-31T01:24:11.128Z,95622.03
2023-03-31T01:26:57.308Z,95619.88
2023-03-31T01:29:57.130Z,95602.38
2023-03-31T01:33:11.740Z,95603.25
2023-03-31T01:35:59.345Z,95592.63
2023-03-31T01:39:02.578Z,95596.59
2023-03-31T01:41:40.325Z,95593.34
2023-03-31T01:44:18.537Z,95594.81
2023-03-31T01:46:54.418Z,95597.59
2023-03-31T01:49:28.466Z,95591.41
2023-03-31T01:52:01.926Z,95597.47
2023-03-31T01:54:39.217Z,95597.75
2023-03-31T01:57:14.776Z,95592.25
2023-03-31T01:59:50.931Z,95578.91
2023-03-31T02:02:22.950Z,95566.38
2023-03-31T02:04:54.332Z,95566.00
2023-03-31T02:07:28.045Z,95566.13
2023-03-31T02:10:00.293Z,95563.84
2023-03-31T02:12:32.686Z,95559.06
2023-03-31T02:15:02.318Z,95561.50
2023-03-31T02:17:32.574Z,95555.75
2023-03-31T02:20:11.453Z,95556.66
2023-03-31T02:22:43.637Z,95554.41
2023-03-31T02:25:15.387Z,95550.09
2023-03-31T02:27:48.581Z,95554.56
2023-03-31T02:30:16.194Z,95557.72
2023-03-31T02:32:46.607Z,95548.38
2023-03-31T02:35:18.362Z,95553.25
2023-03-31T02:37:46.733Z,95537.75
2023-03-31T02:40:18.117Z,95533.44
2023-03-31T02:42:47.060Z,95526.09
2023-03-31T02:45:46.058Z,95517.06
2023-03-31T02:48:18.677Z,95504.03
2023-03-31T02:51:01.748Z,95504.50
2023-03-31T02:53:44.098Z,95509.91
2023-03-31T02:56:28.364Z,95498.53
2023-03-31T02:59:12.243Z,95501.19
2023-03-31T03:01:51.251Z,95500.25
2023-03-31T03:04:37.129Z,95498.63
2023-03-31T03:07:11.320Z,95496.72
2023-03-31T03:09:51.582Z,95502.19
2023-03-31T03:12:26.470Z,95482.59
2023-03-31T03:15:01.010Z,95482.84
2023-03-31T03:17:33.655Z,95484.88
2023-03-31T03:20:04.126Z,95475.59
2023-03-31T03:22:31.613Z,95469.34
2023-03-31T03:24:59.114Z,95459.09
2023-03-31T03:27:26.618Z,95465.03
2023-03-31T03:29:55.466Z,95453.97
2023-03-31T03:32:23.082Z,95451.06
2023-03-31T03:34:50.993Z,95440.88
2023-03-31T03:37:18.540Z,95438.66
2023-03-31T03:39:46.088Z,95443.34
2023-03-31T03:42:13.616Z,95419.13
2023-03-31T03:44:42.249Z,95427.97
2023-03-31T03:47:11.136Z,95426.72
2023-03-31T03:49:38.666Z,95422.22
2023-03-31T03:52:06.470Z,95412.34
2023-03-31T03:54:34.198Z,95412.44
2023-03-31T03:57:01.731Z,95409.25
2023-03-31T03:59:29.251Z,95402.19
2023-03-31T04:01:56.840Z,95409.38
2023-03-31T04:04:25.798Z,95414.16
2023-03-31T04:06:53.306Z,95414.22
2023-03-31T04:09:20.920Z,95408.50
2023-03-31T04:11:48.395Z,95402.31
2023-03-31T04:14:15.885Z,95401.44
2023-03-31T04:16:46.781Z,95403.34
2023-03-31T04:19:17.505Z,95388.25
2023-03-31T04:21:46.478Z,95398.31
2023-03-31T04:24:15.903Z,95394.53
2023-03-31T04:26:43.679Z,95396.19
2023-03-31T04:29:13.599Z,95398.09
2023-03-31T04:31:43.273Z,95386.06
2023-03-31T04:34:13.905Z,95378.34
2023-03-31T04:36:46.996Z,95376.47
2023-03-31T04:39:17.388Z,95371.34
2023-03-31T04:41:45.426Z,95364.91
2023-03-31T04:44:13.124Z,95360.16
2023-03-31T04:46:40.912Z,95360.66
2023-03-31T04:49:08.403Z,95351.81
2023-03-31T04:51:35.952Z,95355.13
2023-03-31T04:54:03.856Z,95354.47
2023-03-31T04:56:32.783Z,95349.75
2023-03-31T04:59:00.346Z,95365.53
2023-03-31T05:01:27.867Z,95361.88
2023-03-31T05:03:55.524Z,95354.19
2023-03-31T05:06:23.080Z,95331.59
2023-03-31T05:08:50.556Z,95318.44
2023-03-31T05:11:18.038Z,95308.06
2023-03-31T05:13:46.904Z,95298.28
2023-03-31T05:16:16.223Z,95286.63
2023-03-31T05:18:44.118Z,95259.84
2023-03-31T05:21:13.540Z,95239.13
2023-03-31T05:23:41.405Z,95243.25
2023-03-31T05:26:09.184Z,95254.03
2023-03-31T05:28:37.436Z,95235.63
2023-03-31T05:31:07.758Z,95243.47
2023-03-31T05:33:40.071Z,95227.22
2023-03-31T05:36:09.648Z,95219.38
2023-03-31T05:38:37.566Z,95227.88
2023-03-31T05:41:06.406Z,95232.56
2023-03-31T05:43:33.964Z,95222.47
2023-03-31T05:46:01.685Z,95223.56
2023-03-31T05:48:30.711Z,95222.19
2023-03-31T05:50:58.847Z,95212.84
2023-03-31T05:53:26.615Z,95204.41
2023-03-31T05:55:58.551Z,95206.88
2023-03-31T05:58:26.645Z,95207.31
2023-03-31T06:01:02.388Z,95207.63
2023-03-31T06:03:31.294Z,95193.38
2023-03-31T06:05:58.794Z,95201.84
2023-03-31T06:08:27.036Z,95189.78
2023-03-31T06:10:54.639Z,95177.09
2023-03-31T06:13:22.326Z,95175.63
2023-03-31T06:15:54.789Z,95173.59
2023-03-31T06:18:22.295Z,95169.72
2023-03-31T06:20:51.946Z,95159.59
2023-03-31T06:23:19.431Z,95154.06
2023-03-31T06:25:51.410Z,95157.25
2023-03-31T06:28:19.943Z,95155.31
2023-03-31T06:30:47.775Z,95149.16
2023-03-31T06:33:16.391Z,95141.00
2023-03-31T06:35:43.940Z,95143.13
2023-03-31T06:38:12.815Z,95136.91
2023-03-31T06:40:40.272Z,95136.53
2023-03-31T06:43:07.743Z,95135.38
2023-03-31T06:45:35.305Z,95138.63
2023-03-31T06:48:02.908Z,95149.41
2023-03-31T06:50:30.496Z,95144.09
2023-03-31T06:52:58.826Z,95132.34
2023-03-31T06:55:27.684Z,95136.66
2023-03-31T06:57:55.367Z,95126.66
2023-03-31T07:00:25.905Z,95127.72
2023-03-31T07:02:53.569Z,95125.34
2023-03-31T07:05:26.737Z,95121.91
2023-03-31T07:07:54.288Z,95113.81
2023-03-31T07:10:22.520Z,95111.41
2023-03-31T07:12:51.503Z,95115.06
2023-03-31T07:15:19.386Z,95122.19
2023-03-31T07:17:50.959Z,95118.75
2023-03-31T07:20:19.706Z,95122.88
2023-03-31T07:22:49.790Z,95120.69
2023-03-31T07:25:18.585Z,95114.38
2023-03-31T07:27:46.245Z,95122.34
2023-03-31T07:30:17.051Z,95130.19
2023-03-31T07:32:44.821Z,95131.09
2023-03-31T07:35:12.615Z,95140.88
2023-03-31T07:37:42.121Z,95133.03
2023-03-31T07:40:12.040Z,95139.91
2023-03-31T07:42:39.799Z,95144.88
2023-03-31T07:45:09.159Z,95145.50
2023-03-31T07:47:38.496Z,95154.88
2023-03-31T07:50:07.395Z,95148.06
2023-03-31T07:52:35.232Z,95149.91
2023-03-31T07:55:03.547Z,95139.88
2023-03-31T07:57:31.165Z,95140.78
2023-03-31T07:59:58.720Z,95142.47
2023-03-31T08:02:26.455Z,95125.25
2023-03-31T08:04:55.365Z,95124.16
2023-03-31T08:07:22.868Z,95120.28
2023-03-31T08:09:50.472Z,95119.38
2023-03-31T08:12:17.986Z,95118.44
2023-03-31T08:14:45.525Z,95110.09
2023-03-31T08:17:13.002Z,95109.31
2023-03-31T08:19:40.604Z,95089.09
2023-03-31T08:22:09.409Z,95091.63
2023-03-31T08:24:36.901Z,95082.63
2023-03-31T08:27:04.653Z,95079.16
2023-03-31T08:29:32.245Z,95077.69
2023-03-31T08:32:00.141Z,95064.78
2023-03-31T08:34:28.360Z,95030.09
2023-03-31T08:36:56.480Z,95019.38
2023-03-31T08:39:25.474Z,95003.59
2023-03-31T08:41:58.414Z,94985.47
2023-03-31T08:44:32.789Z,94976.88
2023-03-31T08:47:03.981Z,94982.41
2023-03-31T08:49:40.067Z,95002.59
2023-03-31T08:52:13.640Z,95016.91
2023-03-31T08:54:45.578Z,95036.84
2023-03-31T08:57:19.124Z,95046.66
2023-03-31T08:59:47.674Z,95064.38
2023-03-31T09:02:24.753Z,95077.69
2023-03-31T09:05:11.445Z,95093.78
2023-03-31T09:07:49.284Z,95104.09
2023-03-31T09:10:36.543Z,95126.34
2023-03-31T09:13:18.933Z,95070.88
2023-03-31T09:15:51.647Z,95029.63
2023-03-31T09:18:27.380Z,95015.75
2023-03-31T09:21:03.298Z,95020.78
2023-03-31T09:23:36.505Z,95030.19
2023-03-31T09:26:06.393Z,95015.47
2023-03-31T09:28:39.190Z,95003.69
2023-03-31T09:31:14.045Z,94987.63
2023-03-31T09:33:45.617Z,94976.25
2023-03-31T09:36:18.188Z,94967.69
2023-03-31T09:38:47.093Z,94944.78
2023-03-31T09:41:18.787Z,94941.53
2023-03-31T09:43:48.111Z,94941.13
2023-03-31T09:46:19.746Z,94976.91
2023-03-31T09:48:55.528Z,94964.47
2023-03-31T09:51:30.517Z,94955.84
2023-03-31T09:54:06.014Z,94959.16
2023-03-31T09:56:46.372Z,94959.31
2023-03-31T09:59:16.880Z,94956.00
2023-03-31T10:01:46.317Z,94955.81
2023-03-31T10:04:22.123Z,94945.13
2023-03-31T10:06:49.998Z,94936.66
2023-03-31T10:09:18.069Z,94926.66
2023-03-31T10:11:59.400Z,94915.97
2023-03-31T10:14:33.300Z,94908.03
2023-03-31T10:17:05.238Z,94898.56
2023-03-31T10:19:35.143Z,94894.47
2023-03-31T10:22:05.918Z,94891.06
2023-03-31T10:24:41.158Z,94895.16
2023-03-31T10:27:22.316Z,94891.31
2023-03-31T10:29:53.481Z,94889.47
2023-03-31T10:32:25.950Z,94884.09
2023-03-31T10:34:53.714Z,94868.66
2023-03-31T10:37:24.479Z,94880.97
2023-03-31T10:39:58.817Z,94873.34
2023-03-31T10:42:28.704Z,94885.13
2023-03-31T10:45:20.287Z,94879.81
2023-03-31T10:47:55.595Z,94859.91
2023-03-31T10:50:29.486Z,94861.06
2023-03-31T10:53:03.382Z,94846.47
2023-03-31T10:55:37.201Z,94854.94
2023-03-31T10:58:19.130Z,94846.91
2023-03-31T11:01:04.728Z,94863.00
2023-03-31T11:03:46.354Z,94851.69
2023-03-31T11:06:18.247Z,94838.19
2023-03-31T11:08:57.772Z,94842.56
2023-03-31T11:11:48.088Z,94840.56
2023-03-31T11:14:29.854Z,94822.66
2023-03-31T11:17:06.600Z,94832.78
2023-03-31T11:19:45.891Z,94820.56
2023-03-31T11:22:21.852Z,94813.28
2023-03-31T11:25:11.941Z,94809.00
2023-03-31T11:27:56.264Z,94812.25
2023-03-31T11:30:29.438Z,94796.72
2023-03-31T11:33:16.255Z,94793.44
2023-03-31T11:35:59.673Z,94803.88
2023-03-31T11:38:42.839Z,94811.56
2023-03-31T11:41:14.311Z,94801.41
2023-03-31T11:43:45.604Z,94796.16
2023-03-31T11:46:19.371Z,94805.56
2023-03-31T11:48:52.159Z,94801.91
2023-03-31T11:51:22.685Z,94802.91
2023-03-31T11:53:53.981Z,94796.66
2023-03-31T11:56:24.105Z,94786.88
2023-03-31T11:58:56.099Z,94775.53
2023-03-31T12:01:32.150Z,94766.78
2023-03-31T12:04:05.460Z,94757.81
2023-03-31T12:06:36.423Z,94746.88
2023-03-31T12:09:09.351Z,94747.31
2023-03-31T12:11:42.497Z,94742.94
2023-03-31T12:14:22.496Z,94744.19
2023-03-31T12:16:55.353Z,94723.38
2023-03-31T12:19:28.499Z,94723.50
2023-03-31T12:22:00.145Z,94706.50
2023-03-31T12:24:27.853Z,94711.19
2023-03-31T12:27:04.534Z,94696.41
2023-03-31T12:29:35.420Z,94690.63
2023-03-31T12:32:11.058Z,94695.69
2023-03-31T12:34:46.909Z,94697.16
2023-03-31T12:37:37.873Z,94685.00
2023-03-31T12:40:14.632Z,94663.13
2023-03-31T12:43:04.988Z,94673.94
2023-03-31T12:45:39.327Z,94675.78
2023-03-31T12:48:22.142Z,94671.25
2023-03-31T12:51:02.382Z,94663.38
2023-03-31T12:53:35.883Z,94671.06
2023-03-31T12:56:03.536Z,94655.31
2023-03-31T12:58:43.058Z,94659.41
2023-03-31T13:01:16.126Z,94642.00
2023-03-31T13:04:10.151Z,94634.63
2023-03-31T13:06:55.424Z,94627.84
2023-03-31T13:09:57.119Z,94622.31
2023-03-31T13:12:28.091Z,94617.44
2023-03-31T13:15:00.091Z,94596.09
2023-03-31T13:17:31.412Z,94606.81
2023-03-31T13:20:26.451Z,94596.59
2023-03-31T13:23:02.037Z,94600.69
2023-03-31T13:25:51.639Z,94584.44
2023-03-31T13:28:27.877Z,94604.34
2023-03-31T13:31:02.086Z,94660.72
2023-03-31T14:24:20.959Z,94719.47
2023-03-31T14:26:58.171Z,94715.00
2023-03-31T14:29:32.510Z,94702.34
2023-03-31T14:32:08.119Z,94688.38
2023-03-31T14:34:50.938Z,94690.72
2023-03-31T14:37:20.961Z,94687.25
2023-03-31T14:39:52.759Z,94694.03
2023-03-31T14:42:25.276Z,94695.44
2023-03-31T14:44:56.913Z,94697.09
2023-03-31T14:47:28.485Z,94698.88
2023-03-31T14:50:05.148Z,94697.06
2023-03-31T14:52:35.668Z,94695.81
2023-03-31T14:55:05.077Z,94713.81
2023-03-31T14:57:35.832Z,94700.50
2023-03-31T15:00:08.089Z,94702.78
2023-03-31T15:02:38.033Z,94702.78
2023-03-31T15:05:09.665Z,94706.06
2023-03-31T15:07:37.667Z,94708.09
2023-03-31T15:10:08.922Z,94702.91
2023-03-31T15:12:38.156Z,94706.63
2023-03-31T15:15:08.110Z,94705.97
2023-03-31T15:17:40.461Z,94709.41
2023-03-31T15:20:27.988Z,94701.69
2023-03-31T15:22:56.512Z,94696.59
2023-03-31T15:25:27.646Z,94697.16
2023-03-31T15:27:59.330Z,94685.34
2023-03-31T15:30:29.164Z,94666.31
2023-03-31T15:33:11.116Z,94685.47
2023-03-31T15:35:44.984Z,94690.16
2023-03-31T15:38:16.248Z,94666.81
2023-03-31T15:40:47.081Z,94685.53
2023-03-31T15:45:51.163Z,94684.69
2023-03-31T15:48:23.244Z,94673.47
2023-03-31T15:50:51.736Z,94680.97
2023-03-31T15:53:29.115Z,94678.19
2023-03-31T15:56:00.561Z,94677.06
2023-03-31T15:58:56.108Z,94678.25
2023-03-31T16:01:25.119Z,94679.47
2023-03-31T16:03:56.317Z,94683.41
2023-03-31T16:06:39.912Z,94688.91
2023-03-31T16:09:10.908Z,94694.22
2023-03-31T16:11:43.196Z,94692.00
2023-03-31T16:14:17.043Z,94688.47
2023-03-31T16:16:51.626Z,94685.22
2023-03-31T16:19:22.238Z,94688.91
2023-03-31T16:21:52.648Z,94673.59
2023-03-31T16:24:21.554Z,94679.25
2023-03-31T16:26:50.474Z,94683.56
2023-03-31T16:29:22.216Z,94680.72
2023-03-31T16:31:50.436Z,94686.03
2023-03-31T16:34:17.958Z,94683.56
2023-03-31T16:36:45.498Z,94681.75
2023-03-31T16:39:13.029Z,94687.69
2023-03-31T16:41:40.647Z,94701.16
2023-03-31T16:44:09.457Z,94695.22
2023-03-31T16:46:36.966Z,94708.31
2023-03-31T16:49:04.553Z,94706.84
2023-03-31T16:51:32.027Z,94709.13
2023-03-31T16:53:59.571Z,94715.03
2023-03-31T16:56:27.634Z,94703.19
2023-03-31T16:58:55.185Z,94717.28
2023-03-31T17:01:24.147Z,94719.09
2023-03-31T17:03:51.904Z,94715.03
2023-03-31T17:06:19.433Z,94719.53
2023-03-31T17:08:47.438Z,94714.84
2023-03-31T17:11:14.984Z,94727.28
2023-03-31T17:13:43.639Z,94724.22
2023-03-31T17:18:44.071Z,94724.41
2023-03-31T17:21:13.518Z,94731.56
2023-03-31T17:23:41.425Z,94736.22
2023-03-31T17:26:10.637Z,94720.47
2023-03-31T17:28:38.265Z,94722.31
2023-03-31T17:31:12.358Z,94732.06
2023-03-31T17:33:40.018Z,94731.66
2023-03-31T17:36:09.134Z,94728.19
2023-03-31T17:38:36.907Z,94741.38
2023-03-31T17:41:04.848Z,94736.88
2023-03-31T17:43:32.508Z,94749.44
2023-03-31T17:46:02.613Z,94747.19
2023-03-31T17:48:30.589Z,94750.13
2023-03-31T17:50:59.050Z,94745.03
2023-03-31T17:53:28.415Z,94741.81
2023-03-31T17:55:55.907Z,94742.56
2023-03-31T17:58:23.366Z,94744.25
2023-03-31T18:00:52.046Z,94750.00
2023-03-31T18:03:20.064Z,94751.91
2023-03-31T18:05:47.663Z,94757.50
2023-03-31T18:08:15.827Z,94753.97
2023-03-31T18:10:45.904Z,94755.19
2023-03-31T18:13:13.657Z,94753.75
2023-03-31T18:15:48.385Z,94749.16
2023-03-31T18:18:16.450Z,94757.53
2023-03-31T18:20:44.600Z,94763.94
2023-03-31T18:23:13.035Z,94762.31
2023-03-31T18:25:46.003Z,94766.28
2023-03-31T18:28:14.202Z,94767.81
2023-03-31T18:30:43.262Z,94765.50
2023-03-31T18:33:11.094Z,94773.75
2023-03-31T18:35:39.057Z,94772.53
2023-03-31T18:38:07.112Z,94766.47
2023-03-31T18:40:34.681Z,94767.41
2023-03-31T18:43:03.556Z,94774.94
2023-03-31T18:45:31.205Z,94780.59
2023-03-31T18:47:58.968Z,94767.50
2023-03-31T18:50:26.414Z,94769.53
2023-03-31T18:52:54.357Z,94776.75
2023-03-31T18:55:22.265Z,94777.69
2023-03-31T18:57:50.235Z,94785.19
2023-03-31T19:00:20.507Z,94790.97
2023-03-31T19:02:48.176Z,94801.34
2023-03-31T19:05:15.956Z,94796.09
2023-03-31T19:07:43.445Z,94797.06
2023-03-31T19:10:11.388Z,94787.50
2023-03-31T19:12:38.836Z,94784.03
2023-03-31T19:15:07.804Z,94787.81
2023-03-31T19:17:36.756Z,94782.66
2023-03-31T19:20:05.964Z,94786.34
2023-03-31T19:22:33.485Z,94786.31
2023-03-31T19:25:00.946Z,94787.28
2023-03-31T19:27:28.404Z,94786.69
2023-03-31T19:29:55.857Z,94795.41
2023-03-31T19:32:23.470Z,94802.53
2023-03-31T19:34:52.669Z,94795.78
2023-03-31T19:37:20.132Z,94802.09
2023-03-31T19:39:48.005Z,94798.47
2023-03-31T19:42:16.017Z,94802.97
2023-03-31T19:44:45.771Z,94807.03
2023-03-31T19:47:13.366Z,94808.19
2023-03-31T19:49:41.619Z,94816.78
2023-03-31T19:52:10.511Z,94818.41
2023-03-31T19:54:38.066Z,94826.50
2023-03-31T19:57:05.814Z,94825.88
2023-03-31T19:59:33.312Z,94830.06
2023-03-31T20:02:02.451Z,94832.69
2023-03-31T20:04:30.246Z,94835.78
2023-03-31T20:06:57.881Z,94833.97
2023-03-31T20:09:27.659Z,94839.06
2023-03-31T20:11:55.187Z,94845.06
2023-03-31T20:14:24.105Z,94850.97
2023-03-31T20:16:52.775Z,94849.09
2023-03-31T20:19:20.746Z,94860.25
2023-03-31T20:21:54.046Z,94879.88
2023-03-31T20:24:21.669Z,94891.19
2023-03-31T20:26:50.800Z,94894.00
2023-03-31T20:29:18.309Z,94894.38
2023-03-31T20:31:45.982Z,94891.69
2023-03-31T20:34:16.579Z,94886.53
2023-03-31T20:36:48.962Z,94891.81
2023-03-31T20:39:17.419Z,94874.09
2023-03-31T20:41:45.205Z,94886.78
2023-03-31T20:44:15.759Z,94883.44
2023-03-31T20:46:44.631Z,94891.22
2023-03-31T20:49:12.872Z,94889.06
2023-03-31T20:51:41.691Z,94879.69
2023-03-31T20:54:09.584Z,94876.13
2023-03-31T20:56:39.479Z,94865.03
2023-03-31T20:59:09.189Z,94867.81
2023-03-31T21:01:38.602Z,94859.16
2023-03-31T21:04:08.227Z,94855.84
2023-03-31T21:06:39.558Z,94850.13
2023-03-31T21:09:07.308Z,94857.16
2023-03-31T21:11:35.102Z,94861.75
2023-03-31T21:14:02.601Z,94853.72
2023-03-31T21:16:30.225Z,94856.84
2023-03-31T21:18:59.759Z,94853.47
2023-03-31T21:21:28.861Z,94854.53
2023-03-31T21:23:56.396Z,94858.28
2023-03-31T21:26:24.903Z,94865.31
2023-03-31T21:28:54.740Z,94855.44
2023-03-31T21:31:24.002Z,94853.06
2023-03-31T21:33:53.420Z,94847.88
2023-03-31T21:36:23.377Z,94846.72
2023-03-31T21:38:52.975Z,94838.03
2023-03-31T21:41:23.969Z,94837.78
2023-03-31T21:43:52.030Z,94833.84
2023-03-31T21:46:21.308Z,94844.63
2023-03-31T21:48:49.596Z,94832.59
2023-03-31T21:51:17.212Z,94835.25
2023-03-31T21:53:46.335Z,94834.38
2023-03-31T21:56:13.943Z,94838.16
2023-03-31T21:58:41.885Z,94839.72
2023-03-31T22:01:09.508Z,94839.16
2023-03-31T22:03:38.343Z,94841.53
2023-03-31T22:06:07.991Z,94839.00
2023-03-31T22:08:36.502Z,94835.13
2023-03-31T22:11:06.944Z,94820.31
2023-03-31T22:13:34.789Z,94837.88
2023-03-31T22:16:02.643Z,94841.69
2023-03-31T22:18:30.509Z,94841.25
2023-03-31T22:20:58.779Z,94857.47
2023-03-31T22:23:27.469Z,94843.72
2023-03-31T22:25:55.347Z,94847.19
2023-03-31T22:28:24.145Z,94848.75
2023-03-31T22:30:51.970Z,94852.00
2023-03-31T22:33:19.422Z,94856.22
2023-03-31T22:35:46.903Z,94851.34
2023-03-31T22:38:14.630Z,94859.88
2023-03-31T22:40:42.114Z,94858.41
2023-03-31T22:43:09.992Z,94847.56
2023-03-31T22:45:38.974Z,94858.13
2023-03-31T22:48:07.753Z,94862.63
2023-03-31T22:50:35.458Z,94865.22
2023-03-31T22:53:03.182Z,94865.25
2023-03-31T22:55:30.874Z,94867.19
2023-03-31T22:57:58.547Z,94860.88
2023-03-31T23:00:25.992Z,94861.44
2023-03-31T23:02:54.835Z,94860.72
2023-03-31T23:05:24.158Z,94856.00
2023-03-31T23:07:52.204Z,94855.47
2023-03-31T23:10:20.155Z,94854.59
2023-03-31T23:12:47.637Z,94861.28
2023-03-31T23:15:15.473Z,94857.56
2023-03-31T23:17:42.964Z,94852.06
2023-03-31T23:20:13.294Z,94846.50
2023-03-31T23:22:40.907Z,94849.69
2023-03-31T23:25:08.978Z,94851.13
2023-03-31T23:27:36.464Z,94848.41
2023-03-31T23:30:04.047Z,94837.44
2023-03-31T23:32:31.527Z,94849.41
2023-03-31T23:34:58.979Z,94851.41
2023-03-31T23:37:28.110Z,94848.47
2023-03-31T23:39:55.615Z,94852.03
2023-03-31T23:42:23.098Z,94841.94
2023-03-31T23:44:50.627Z,94847.50
2023-03-31T23:47:18.127Z,94839.19
2023-03-31T23:49:45.876Z,94835.84
2023-03-31T23:52:14.104Z,94836.03
2023-03-31T23:54:42.901Z,94823.16
2023-03-31T23:57:10.404Z,94824.19
2023-03-31T23:59:38.037Z,94815.03
